Time;durP1;ratioP1;P1;durP2;ratioP2;P2;SDS_P1;SDS_P2;PMS_P1;PMS_P2;Temp;Humidity;BMP_temperature;BMP_pressure;BME280_temperature;BME280_humidity;BME280_pressure;Samples;Min_cycle;Max_cycle;Signal;HPM_P1;HPM_P2
2022/01/30 00:03:54;;;;;;;8.87;2.80;;;7.10;99.90;;;;;;10354560;28;20264;-74
2022/01/30 00:08:55;;;;;;;8.60;2.87;;;7.10;99.90;;;;;;10347280;28;20720;-74
2022/01/30 00:13:56;;;;;;;12.93;3.37;;;7.10;99.90;;;;;;10347107;28;20308;-74
2022/01/30 00:24:06;;;;;;;13.03;3.67;;;7.20;99.90;;;;;;10350024;28;20724;-75
2022/01/30 00:29:08;;;;;;;9.53;2.80;;;7.20;99.90;;;;;;10356119;28;20244;-75
2022/01/30 00:34:09;;;;;;;12.87;3.67;;;7.20;99.90;;;;;;10351904;28;20226;-74
2022/01/30 00:39:10;;;;;;;13.60;3.60;;;7.20;99.90;;;;;;10358046;28;20229;-75
2022/01/30 00:44:10;;;;;;;17.17;4.07;;;7.20;99.90;;;;;;10358040;28;20210;-75
2022/01/30 00:49:12;;;;;;;13.43;3.50;;;7.20;99.90;;;;;;10365553;28;20222;-76
2022/01/30 00:54:12;;;;;;;16.77;4.10;;;7.20;99.90;;;;;;10361937;28;20300;-76
2022/01/30 00:59:13;;;;;;;13.83;3.43;;;7.30;99.90;;;;;;10357739;28;20341;-75
2022/01/30 01:04:14;;;;;;;12.83;3.23;;;7.30;99.90;;;;;;10364897;28;20306;-74
2022/01/30 01:09:22;;;;;;;9.97;3.07;;;7.40;99.90;;;;;;10369349;28;20293;-75
2022/01/30 01:25:03;;;;;;;12.00;3.27;;;7.40;99.90;;;;;;10361271;28;20206;-75
2022/01/30 01:30:04;;;;;;;17.50;3.93;;;7.50;99.90;;;;;;10365311;28;20276;-75
2022/01/30 01:35:11;;;;;;;14.13;3.97;;;7.50;99.90;;;;;;10356317;28;20182;-77
2022/01/30 01:40:11;;;;;;;12.70;3.37;;;7.50;99.90;;;;;;10365702;28;20211;-76
2022/01/30 01:45:20;;;;;;;14.83;3.83;;;7.50;99.90;;;;;;10351854;28;20619;-76
2022/01/30 01:50:38;;;;;;;13.67;3.40;;;7.50;99.90;;;;;;10356343;28;20219;-75
2022/01/30 01:55:43;;;;;;;14.80;3.40;;;7.60;99.90;;;;;;10353388;28;20697;-74
2022/01/30 02:00:44;;;;;;;14.83;3.57;;;7.60;99.90;;;;;;10360822;28;20685;-75
2022/01/30 02:05:54;;;;;;;14.87;4.50;;;7.60;99.90;;;;;;10360823;28;20227;-75
2022/01/30 02:26:41;;;;;;;14.20;2.97;;;7.60;99.90;;;;;;10353184;28;20217;-76
2022/01/30 02:31:42;;;;;;;14.27;3.70;;;7.50;99.90;;;;;;10352164;28;20244;-75
2022/01/30 02:36:51;;;;;;;13.07;3.37;;;7.50;99.90;;;;;;10360162;28;20230;-76
2022/01/30 02:41:52;;;;;;;14.27;3.27;;;7.40;99.90;;;;;;10358346;28;20565;-74
2022/01/30 02:46:56;;;;;;;13.53;3.10;;;7.40;99.90;;;;;;10349279;28;20218;-74
2022/01/30 02:52:04;;;;;;;11.10;2.83;;;7.50;99.90;;;;;;10354006;28;20234;-76
2022/01/30 02:57:05;;;;;;;10.50;2.83;;;7.50;99.90;;;;;;10355773;28;20222;-75
2022/01/30 03:02:09;;;;;;;9.87;2.90;;;7.40;99.90;;;;;;10345186;28;20226;-75
2022/01/30 03:07:10;;;;;;;15.27;3.27;;;7.40;99.90;;;;;;10360784;28;20222;-76
2022/01/30 03:12:14;;;;;;;9.60;2.77;;;7.40;99.90;;;;;;10363238;28;20229;-75
2022/01/30 03:17:14;;;;;;;13.13;2.97;;;7.40;99.90;;;;;;10356816;28;20281;-75
2022/01/30 03:22:19;;;;;;;13.93;3.43;;;7.40;99.90;;;;;;10360053;28;20782;-75
2022/01/30 03:27:25;;;;;;;8.87;2.97;;;7.50;99.90;;;;;;10358524;28;20283;-76
2022/01/30 03:32:26;;;;;;;13.10;2.70;;;7.50;99.90;;;;;;10364204;28;20223;-75
2022/01/30 03:37:27;;;;;;;11.77;2.90;;;7.50;99.90;;;;;;10366975;28;20235;-75
2022/01/30 03:42:31;;;;;;;11.37;2.73;;;7.40;99.90;;;;;;10354528;28;20266;-76
2022/01/30 03:47:31;;;;;;;10.77;3.03;;;7.40;99.90;;;;;;10370754;28;20218;-76
2022/01/30 03:52:32;;;;;;;6.93;2.47;;;7.30;99.90;;;;;;10352474;28;20217;-76
2022/01/30 03:57:33;;;;;;;12.10;2.60;;;7.20;99.90;;;;;;10358379;28;20380;-75
2022/01/30 04:02:35;;;;;;;11.37;2.97;;;7.10;99.90;;;;;;10358951;28;20297;-75
2022/01/30 04:07:36;;;;;;;11.43;2.80;;;7.00;99.90;;;;;;10349692;28;20251;-75
2022/01/30 04:12:37;;;;;;;15.17;3.03;;;6.90;99.90;;;;;;10359459;28;20225;-75
2022/01/30 04:17:41;;;;;;;13.27;2.97;;;6.80;99.90;;;;;;10348365;28;20225;-75
2022/01/30 04:22:41;;;;;;;16.30;3.50;;;6.70;99.90;;;;;;10348175;28;20218;-75
2022/01/30 04:27:45;;;;;;;13.90;3.10;;;6.70;99.90;;;;;;10355898;28;20237;-76
2022/01/30 04:32:46;;;;;;;15.10;3.00;;;6.80;99.90;;;;;;10357830;28;20221;-75
2022/01/30 04:59:08;;;;;;;16.50;3.50;;;6.80;99.90;;;;;;10360605;28;20245;-75
2022/01/30 05:04:24;;;;;;;16.83;3.13;;;6.80;99.90;;;;;;10347226;28;20220;-75
2022/01/30 05:09:27;;;;;;;9.57;2.77;;;6.60;99.90;;;;;;10360292;28;20213;-75
2022/01/30 05:14:37;;;;;;;19.53;3.33;;;6.50;99.90;;;;;;10367785;28;20270;-75
2022/01/30 05:19:41;;;;;;;18.83;3.83;;;6.30;99.90;;;;;;10352237;28;20230;-74
2022/01/30 05:24:45;;;;;;;13.60;2.93;;;6.30;99.90;;;;;;10358677;28;20367;-75
2022/01/30 05:29:46;;;;;;;15.50;3.80;;;6.30;99.90;;;;;;10358071;28;20310;-74
2022/01/30 05:34:47;;;;;;;17.80;3.50;;;6.30;99.90;;;;;;10365857;28;20233;-75
2022/01/30 05:39:51;;;;;;;13.83;2.90;;;6.30;99.90;;;;;;10366084;28;20307;-75
2022/01/30 05:49:53;;;;;;;17.07;3.53;;;6.40;99.90;;;;;;10367542;28;20248;-75
2022/01/30 05:54:54;;;;;;;15.00;3.00;;;6.30;99.90;;;;;;10358608;28;20237;-75
2022/01/30 05:59:54;;;;;;;14.70;2.80;;;6.30;99.90;;;;;;10365106;28;20241;-75
2022/01/30 06:04:55;;;;;;;9.43;2.43;;;6.30;99.90;;;;;;10364589;28;20231;-75
2022/01/30 06:09:56;;;;;;;15.60;3.33;;;6.40;99.90;;;;;;10347272;28;20239;-74
2022/01/30 06:14:59;;;;;;;18.23;3.47;;;6.40;99.90;;;;;;10348505;28;20684;-75
2022/01/30 06:20:00;;;;;;;11.50;2.77;;;6.50;99.90;;;;;;10351777;28;20269;-75
2022/01/30 06:25:01;;;;;;;12.47;3.37;;;6.50;99.90;;;;;;10360592;28;20221;-75
2022/01/30 06:30:07;;;;;;;14.30;3.27;;;6.50;99.90;;;;;;10360554;28;20292;-74
2022/01/30 06:35:08;;;;;;;13.90;3.17;;;6.40;99.90;;;;;;10355887;28;20225;-75
2022/01/30 06:40:11;;;;;;;16.30;2.80;;;6.40;99.90;;;;;;10344090;28;20213;-75
2022/01/30 06:45:12;;;;;;;10.93;2.93;;;6.40;99.90;;;;;;10358576;28;20194;-75
2022/01/30 06:50:13;;;;;;;15.20;3.10;;;6.40;99.90;;;;;;10351967;28;20198;-76
2022/01/30 06:55:14;;;;;;;15.53;2.90;;;6.30;99.90;;;;;;10361621;28;20190;-74
2022/01/30 07:00:15;;;;;;;13.90;3.83;;;6.30;99.90;;;;;;10348151;28;20208;-75
2022/01/30 07:05:19;;;;;;;8.93;2.43;;;6.20;99.90;;;;;;10359600;28;20186;-76
2022/01/30 07:10:20;;;;;;;13.67;2.83;;;6.10;99.90;;;;;;10353280;28;20231;-75
2022/01/30 07:15:21;;;;;;;15.00;2.97;;;6.10;99.90;;;;;;10351234;28;20197;-74
2022/01/30 07:20:22;;;;;;;13.53;3.10;;;6.10;99.90;;;;;;10349961;28;20213;-75
2022/01/30 07:25:23;;;;;;;18.30;3.50;;;6.20;99.90;;;;;;10353404;28;20351;-74
2022/01/30 07:30:23;;;;;;;17.33;3.53;;;6.30;99.90;;;;;;10359616;28;20221;-75
2022/01/30 07:35:24;;;;;;;17.80;3.13;;;6.40;99.90;;;;;;10360008;28;20213;-74
2022/01/30 07:40:25;;;;;;;16.30;3.37;;;6.40;99.90;;;;;;10352346;28;20226;-74
2022/01/30 07:45:26;;;;;;;13.57;2.63;;;6.50;99.90;;;;;;10346963;28;20288;-75
2022/01/30 07:50:27;;;;;;;13.50;2.97;;;6.60;99.90;;;;;;10356724;28;20239;-75
2022/01/30 07:55:27;;;;;;;15.77;3.30;;;6.70;99.90;;;;;;10347167;28;20221;-74
2022/01/30 08:00:28;;;;;;;13.83;3.27;;;6.70;99.90;;;;;;10350790;28;20229;-75
2022/01/30 08:05:29;;;;;;;12.77;2.37;;;6.80;99.90;;;;;;10358411;28;20218;-75
2022/01/30 08:10:29;;;;;;;13.40;2.50;;;6.90;99.90;;;;;;10350608;28;20221;-74
2022/01/30 08:15:30;;;;;;;10.10;2.57;;;6.90;99.90;;;;;;10345405;28;20218;-74
2022/01/30 08:20:31;;;;;;;10.17;2.57;;;7.00;99.90;;;;;;10351184;28;20213;-75
2022/01/30 08:25:31;;;;;;;18.33;3.00;;;7.10;99.90;;;;;;10349565;28;20301;-76
2022/01/30 08:30:32;;;;;;;15.27;2.90;;;7.20;99.90;;;;;;10350372;28;20213;-75
2022/01/30 08:35:33;;;;;;;12.13;2.40;;;7.30;99.90;;;;;;10353180;28;20218;-74
2022/01/30 08:40:33;;;;;;;10.00;2.30;;;7.50;99.90;;;;;;10344738;28;20229;-75
2022/01/30 08:45:34;;;;;;;14.33;3.40;;;7.90;99.90;;;;;;10349153;28;20218;-75
2022/01/30 08:50:35;;;;;;;8.30;2.13;;;8.30;99.90;;;;;;10352377;28;20766;-75
2022/01/30 08:55:36;;;;;;;18.73;2.83;;;8.50;99.90;;;;;;10352525;28;20216;-75
2022/01/30 09:00:43;;;;;;;10.43;2.60;;;8.90;99.90;;;;;;10352277;28;20711;-76
2022/01/30 09:05:44;;;;;;;11.37;2.33;;;11.30;99.90;;;;;;10353635;28;20225;-76
2022/01/30 09:10:44;;;;;;;13.07;2.53;;;12.40;99.80;;;;;;10360973;28;20696;-75
2022/01/30 09:15:48;;;;;;;8.23;2.23;;;11.80;97.50;;;;;;10357128;28;20222;-75
2022/01/30 09:20:49;;;;;;;7.07;2.67;;;12.00;97.10;;;;;;10363182;28;20244;-75
2022/01/30 09:25:49;;;;;;;9.00;2.20;;;13.70;92.10;;;;;;10354993;28;20605;-75
2022/01/30 09:30:50;;;;;;;9.23;2.27;;;15.60;73.90;;;;;;10355396;28;20224;-76
2022/01/30 09:35:51;;;;;;;8.87;2.30;;;17.30;64.40;;;;;;10347278;28;20237;-76
2022/01/30 09:40:56;;;;;;;6.63;2.50;;;18.80;54.70;;;;;;10353602;28;20682;-75
2022/01/30 09:45:58;;;;;;;10.17;2.90;;;20.70;50.50;;;;;;10361914;28;20226;-76
2022/01/30 09:51:01;;;;;;;11.60;3.43;;;20.50;47.20;;;;;;10358282;28;20213;-75
2022/01/30 09:56:03;;;;;;;11.87;2.57;;;17.10;52.00;;;;;;10347885;28;20234;-74
2022/01/30 10:01:03;;;;;;;14.73;2.50;;;13.20;61.30;;;;;;10360273;28;20235;-74
2022/01/30 10:06:14;;;;;;;6.87;2.47;;;11.60;70.20;;;;;;10359227;28;20223;-75
2022/01/30 10:16:41;;;;;;;8.80;2.60;;;10.30;76.70;;;;;;10353738;28;20598;-75
2022/01/30 10:21:41;;;;;;;11.80;2.57;;;9.80;80.60;;;;;;10361211;28;20244;-75
2022/01/30 10:26:42;;;;;;;9.80;2.20;;;9.70;80.90;;;;;;10360076;28;20227;-74
2022/01/30 10:32:08;;;;;;;10.13;2.77;;;9.70;81.10;;;;;;10361397;28;20220;-74
2022/01/30 10:37:21;;;;;;;12.03;2.53;;;9.50;81.80;;;;;;10346639;28;20225;-75
2022/01/30 10:42:38;;;;;;;9.20;2.33;;;9.70;81.70;;;;;;10357440;28;20213;-75
2022/01/30 10:47:41;;;;;;;11.27;2.57;;;10.00;81.70;;;;;;10370450;28;20215;-75
2022/01/30 10:52:48;;;;;;;10.07;2.40;;;9.80;81.70;;;;;;10361983;28;20306;-76
2022/01/30 10:57:51;;;;;;;10.00;2.43;;;9.70;82.50;;;;;;10361904;28;20231;-75
2022/01/30 11:02:51;;;;;;;10.87;2.77;;;10.10;81.40;;;;;;10359820;28;20718;-74
2022/01/30 11:07:52;;;;;;;10.47;2.30;;;10.70;79.40;;;;;;10360223;28;20231;-75
2022/01/30 11:13:07;;;;;;;11.10;2.63;;;10.80;79.10;;;;;;10359777;28;20239;-75
2022/01/30 11:18:11;;;;;;;12.23;2.90;;;10.80;78.30;;;;;;10361033;28;20282;-75
2022/01/30 11:23:13;;;;;;;8.17;2.40;;;10.40;77.10;;;;;;10362216;28;20228;-76
2022/01/30 11:28:15;;;;;;;9.93;2.27;;;10.10;79.00;;;;;;10363947;28;20219;-75
2022/01/30 11:33:18;;;;;;;9.13;3.00;;;9.90;79.80;;;;;;10354423;28;20223;-75
2022/01/30 11:38:22;;;;;;;10.07;2.23;;;9.70;80.30;;;;;;10358792;28;20232;-76
2022/01/30 11:43:24;;;;;;;13.93;2.73;;;9.60;81.70;;;;;;10362403;28;20227;-76
2022/01/30 11:48:25;;;;;;;8.10;2.37;;;9.50;82.60;;;;;;10352487;28;20266;-75
2022/01/30 11:53:29;;;;;;;12.73;2.60;;;9.60;83.00;;;;;;10374909;28;20243;-75
2022/01/30 11:58:32;;;;;;;11.43;2.60;;;9.70;82.00;;;;;;10350655;28;20368;-75
2022/01/30 12:03:35;;;;;;;13.23;2.73;;;9.80;82.30;;;;;;10356149;28;20218;-75
2022/01/30 12:08:46;;;;;;;12.13;2.73;;;9.70;82.00;;;;;;10355861;28;20237;-75
2022/01/30 12:13:47;;;;;;;14.33;3.23;;;9.50;82.20;;;;;;10344856;28;20652;-75
2022/01/30 12:18:48;;;;;;;11.93;2.83;;;9.40;83.70;;;;;;10347848;28;20235;-75
2022/01/30 12:23:48;;;;;;;8.67;2.97;;;9.50;83.40;;;;;;10354972;28;20230;-75
2022/01/30 12:28:53;;;;;;;17.67;3.30;;;9.40;83.60;;;;;;10347243;28;20255;-75
2022/01/30 12:34:08;;;;;;;12.97;3.90;;;9.30;82.70;;;;;;10352209;28;20224;-75
2022/01/30 12:39:14;;;;;;;12.73;3.50;;;9.30;82.40;;;;;;10350610;28;20228;-75
2022/01/30 12:44:20;;;;;;;11.27;3.40;;;9.20;83.40;;;;;;10352573;28;20235;-74
2022/01/30 12:49:31;;;;;;;15.43;4.43;;;9.20;82.90;;;;;;10354733;28;20228;-75
2022/01/30 12:54:37;;;;;;;13.17;3.30;;;9.30;83.80;;;;;;10356743;28;20216;-76
2022/01/30 12:59:38;;;;;;;16.27;3.67;;;9.40;84.30;;;;;;10356462;28;20234;-75
2022/01/30 13:04:38;;;;;;;13.63;3.47;;;9.50;83.70;;;;;;10357826;28;20216;-76
2022/01/30 13:09:39;;;;;;;13.80;3.40;;;9.30;84.00;;;;;;10352794;28;20219;-75
2022/01/30 13:14:43;;;;;;;19.63;3.67;;;9.30;85.00;;;;;;10359842;28;20778;-75
2022/01/30 13:19:43;;;;;;;20.43;3.83;;;9.50;83.80;;;;;;10349492;28;20239;-74
2022/01/30 13:24:53;;;;;;;12.83;3.60;;;9.50;84.30;;;;;;10358010;28;20220;-75
2022/01/30 13:29:54;;;;;;;12.33;3.17;;;9.60;83.40;;;;;;10356613;28;20687;-75
2022/01/30 13:34:58;;;;;;;18.30;3.83;;;9.60;82.50;;;;;;10356428;28;20223;-75
2022/01/30 13:40:18;;;;;;;14.67;3.43;;;9.60;82.50;;;;;;10354296;28;20228;-75
2022/01/30 13:50:49;;;;;;;14.23;3.93;;;9.40;82.60;;;;;;10362536;28;20629;-76
2022/01/30 13:56:08;;;;;;;13.40;3.73;;;9.40;82.80;;;;;;10369463;28;20285;-76
2022/01/30 14:01:11;;;;;;;17.03;3.70;;;9.40;83.00;;;;;;10356249;28;20228;-76
2022/01/30 14:06:17;;;;;;;17.40;4.00;;;9.40;81.60;;;;;;10347500;28;20215;-75
2022/01/30 14:11:29;;;;;;;9.97;3.00;;;9.60;79.60;;;;;;10356219;28;20263;-75
2022/01/30 14:16:42;;;;;;;14.10;4.50;;;9.60;80.80;;;;;;10352322;28;20234;-74
2022/01/30 14:21:43;;;;;;;13.50;3.50;;;9.40;80.10;;;;;;10356645;28;20223;-75
2022/01/30 14:26:44;;;;;;;14.67;3.20;;;9.50;81.00;;;;;;10353004;28;20236;-75
2022/01/30 14:32:02;;;;;;;12.37;3.27;;;9.50;80.80;;;;;;10365140;28;20231;-75
2022/01/30 14:37:04;;;;;;;14.57;3.70;;;9.40;79.70;;;;;;10351433;28;20227;-75
2022/01/30 14:42:12;;;;;;;18.87;3.50;;;9.20;80.70;;;;;;10349959;28;20220;-74
2022/01/30 14:47:13;;;;;;;12.90;3.10;;;9.10;81.70;;;;;;10352356;28;20215;-75
2022/01/30 14:52:14;;;;;;;16.87;3.47;;;9.10;80.00;;;;;;10356423;28;20270;-75
2022/01/30 14:57:15;;;;;;;15.10;3.23;;;9.00;79.70;;;;;;10349558;28;20251;-75
2022/01/30 15:02:19;;;;;;;16.30;3.37;;;9.00;79.60;;;;;;10357637;28;20278;-74
2022/01/30 15:07:19;;;;;;;13.30;3.20;;;8.90;81.70;;;;;;10354976;28;20231;-75
2022/01/30 15:12:20;;;;;;;13.43;3.10;;;8.90;82.20;;;;;;10353708;28;20307;-74
2022/01/30 15:17:30;;;;;;;20.40;4.17;;;8.70;81.20;;;;;;10354567;28;20254;-75
2022/01/30 15:22:31;;;;;;;16.67;3.80;;;8.50;83.30;;;;;;10358049;28;20281;-74
2022/01/30 15:27:32;;;;;;;15.23;3.90;;;8.40;82.00;;;;;;10352499;28;20886;-75
2022/01/30 15:32:35;;;;;;;13.77;3.70;;;8.30;82.20;;;;;;10356477;28;20258;-75
2022/01/30 15:37:36;;;;;;;17.00;3.40;;;8.30;82.70;;;;;;10361580;28;20234;-75
2022/01/30 15:42:37;;;;;;;17.80;3.53;;;8.20;83.00;;;;;;10349195;28;20213;-74
2022/01/30 15:52:58;;;;;;;11.87;3.40;;;8.10;83.90;;;;;;10359161;28;20229;-76
2022/01/30 15:57:59;;;;;;;19.97;4.13;;;8.00;84.60;;;;;;10359374;28;20229;-74
2022/01/30 16:02:59;;;;;;;15.13;3.17;;;7.90;85.00;;;;;;10346605;28;20227;-74
2022/01/30 16:08:01;;;;;;;15.27;3.23;;;7.80;85.10;;;;;;10346679;28;20219;-75
2022/01/30 16:18:21;;;;;;;15.60;3.03;;;7.70;85.70;;;;;;10350270;28;20236;-74
2022/01/30 16:23:22;;;;;;;15.70;3.57;;;7.60;87.00;;;;;;10359012;28;20223;-73
2022/01/30 16:28:23;;;;;;;16.73;3.50;;;7.60;86.80;;;;;;10348646;28;20221;-73
2022/01/30 16:33:24;;;;;;;13.90;3.37;;;7.50;87.80;;;;;;10347962;28;20458;-75
2022/01/30 16:38:24;;;;;;;12.53;3.77;;;7.50;88.30;;;;;;10350482;28;20236;-74
2022/01/30 16:43:34;;;;;;;12.77;3.60;;;7.40;88.80;;;;;;10349378;28;20644;-74
2022/01/30 16:48:35;;;;;;;9.73;2.80;;;7.40;89.00;;;;;;10342080;28;20232;-73
2022/01/30 16:53:35;;;;;;;13.77;4.03;;;7.20;90.10;;;;;;10350815;28;20213;-74
2022/01/30 16:58:36;;;;;;;15.20;3.20;;;7.00;90.50;;;;;;10344891;28;20229;-74
2022/01/30 17:03:37;;;;;;;17.77;3.83;;;7.00;91.20;;;;;;10348328;28;20686;-74
2022/01/30 17:08:39;;;;;;;17.53;3.40;;;6.90;91.10;;;;;;10358852;28;20241;-75
2022/01/30 17:13:39;;;;;;;11.43;3.80;;;6.80;91.60;;;;;;10348294;28;20756;-74
2022/01/30 17:18:40;;;;;;;20.83;4.50;;;6.80;91.40;;;;;;10345014;28;20287;-74
2022/01/30 17:23:41;;;;;;;13.93;3.63;;;6.70;91.80;;;;;;10358303;28;20328;-73
2022/01/30 17:28:41;;;;;;;15.93;4.07;;;6.60;92.40;;;;;;10355058;28;20701;-73
2022/01/30 17:33:45;;;;;;;15.33;3.20;;;6.50;92.80;;;;;;10347984;28;20228;-74
2022/01/30 17:38:46;;;;;;;14.93;4.00;;;6.50;93.20;;;;;;10351587;28;20232;-74
2022/01/30 17:43:49;;;;;;;13.53;3.57;;;6.30;93.70;;;;;;10354782;28;20213;-75
2022/01/30 17:48:54;;;;;;;19.97;4.17;;;6.20;94.40;;;;;;10356027;28;20218;-73
2022/01/30 17:53:56;;;;;;;12.40;3.60;;;6.10;95.00;;;;;;10359570;28;20298;-74
2022/01/30 17:58:56;;;;;;;14.83;3.93;;;6.00;95.60;;;;;;10348371;28;20300;-74
2022/01/30 18:03:57;;;;;;;17.83;4.30;;;6.00;95.90;;;;;;10359120;28;20302;-74
2022/01/30 18:09:01;;;;;;;15.73;4.33;;;6.00;96.50;;;;;;10360913;28;20221;-73
2022/01/30 18:14:02;;;;;;;17.80;5.07;;;6.10;96.40;;;;;;10365370;28;20263;-73
2022/01/30 18:19:04;;;;;;;18.20;5.57;;;6.10;96.60;;;;;;10365119;28;20234;-74
2022/01/30 18:24:05;;;;;;;16.87;4.83;;;6.20;96.80;;;;;;10361219;28;20225;-75
2022/01/30 18:29:07;;;;;;;14.40;4.23;;;6.20;96.70;;;;;;10367039;28;20756;-74
2022/01/30 18:34:08;;;;;;;17.03;4.33;;;6.10;96.90;;;;;;10359997;28;20221;-74
2022/01/30 18:39:20;;;;;;;16.47;4.33;;;6.00;97.70;;;;;;10351471;28;20233;-74
2022/01/30 18:44:21;;;;;;;19.47;5.50;;;5.90;98.50;;;;;;10359019;28;20221;-75
2022/01/30 18:49:21;;;;;;;16.70;4.30;;;5.90;99.00;;;;;;10354319;28;20724;-74
2022/01/30 18:54:22;;;;;;;18.43;4.77;;;5.80;99.50;;;;;;10353764;28;20232;-75
2022/01/30 18:59:26;;;;;;;17.47;4.63;;;5.80;99.90;;;;;;10349405;28;20237;-74
2022/01/30 19:04:27;;;;;;;16.90;4.93;;;5.70;99.90;;;;;;10355420;28;20221;-73
2022/01/30 19:09:28;;;;;;;19.57;4.50;;;5.60;99.90;;;;;;10351737;28;20287;-74
2022/01/30 19:14:31;;;;;;;19.47;4.10;;;5.50;99.90;;;;;;10353078;28;20312;-74
2022/01/30 19:19:32;;;;;;;16.83;5.87;;;5.40;99.90;;;;;;10347520;28;20697;-73
2022/01/30 19:24:32;;;;;;;29.57;11.00;;;5.40;99.90;;;;;;10358831;28;20217;-75
2022/01/30 19:29:33;;;;;;;25.00;10.33;;;5.50;99.90;;;;;;10356986;28;20688;-75
2022/01/30 19:34:34;;;;;;;21.67;8.10;;;5.40;99.90;;;;;;10361005;28;20317;-74
2022/01/30 19:39:35;;;;;;;27.37;9.40;;;5.40;99.90;;;;;;10353024;28;20224;-74
2022/01/30 19:44:37;;;;;;;18.27;6.07;;;5.40;99.90;;;;;;10356627;28;20689;-75
2022/01/30 19:49:38;;;;;;;15.23;5.70;;;5.40;99.90;;;;;;10347628;28;20237;-75
2022/01/30 19:54:39;;;;;;;14.27;4.47;;;5.30;99.90;;;;;;10364126;28;20220;-75
2022/01/30 19:59:40;;;;;;;20.40;7.70;;;5.30;99.90;;;;;;10348244;28;20340;-74
2022/01/30 20:04:41;;;;;;;19.47;5.40;;;5.20;99.90;;;;;;10357161;28;20248;-75
2022/01/30 20:09:41;;;;;;;20.33;5.10;;;5.20;99.90;;;;;;10352584;28;20217;-74
2022/01/30 20:14:42;;;;;;;18.60;6.27;;;5.20;99.90;;;;;;10356073;28;20232;-74
2022/01/30 20:19:43;;;;;;;18.80;6.43;;;5.10;99.90;;;;;;10343514;28;20230;-75
2022/01/30 20:24:43;;;;;;;16.43;5.93;;;5.10;99.90;;;;;;10347770;28;20309;-74
2022/01/30 20:29:45;;;;;;;18.80;5.70;;;5.00;99.90;;;;;;10356967;28;20617;-75
2022/01/30 20:34:49;;;;;;;19.40;5.87;;;5.00;99.90;;;;;;10354815;28;20221;-75
2022/01/30 20:39:53;;;;;;;20.30;5.20;;;5.00;99.90;;;;;;10354548;28;20312;-75
2022/01/30 20:44:57;;;;;;;19.07;6.30;;;5.00;99.90;;;;;;10348252;28;20304;-75
2022/01/30 20:49:58;;;;;;;19.43;5.27;;;4.90;99.90;;;;;;10351395;28;20316;-75
2022/01/30 20:54:58;;;;;;;19.50;6.37;;;4.90;99.90;;;;;;10361131;28;20645;-76
2022/01/30 20:59:59;;;;;;;18.20;6.67;;;4.80;99.90;;;;;;10360442;28;20248;-75
2022/01/30 21:05:04;;;;;;;24.50;8.40;;;4.70;99.90;;;;;;10356077;28;20217;-74
2022/01/30 21:10:10;;;;;;;23.50;9.07;;;4.50;99.90;;;;;;10372018;28;20227;-75
2022/01/30 21:15:13;;;;;;;20.70;6.80;;;4.40;99.90;;;;;;10365372;28;20589;-75
2022/01/30 21:20:14;;;;;;;20.27;6.63;;;4.30;99.90;;;;;;10363178;28;20308;-75
2022/01/30 21:25:15;;;;;;;18.73;6.63;;;4.20;99.90;;;;;;10360944;28;20197;-75
2022/01/30 21:30:16;;;;;;;24.47;6.60;;;4.10;99.90;;;;;;10372476;28;20231;-74
2022/01/30 21:35:17;;;;;;;22.17;5.30;;;4.10;99.90;;;;;;10370526;28;20190;-72
2022/01/30 21:40:18;;;;;;;21.53;5.80;;;4.00;99.90;;;;;;10358537;28;20221;-74
2022/01/30 21:45:19;;;;;;;19.73;6.83;;;4.00;99.90;;;;;;10351581;28;20190;-75
2022/01/30 21:50:20;;;;;;;22.97;6.20;;;4.00;99.90;;;;;;10356220;28;20232;-74
2022/01/30 21:55:21;;;;;;;22.30;7.10;;;3.90;99.90;;;;;;10376656;28;20267;-77
2022/01/30 22:00:22;;;;;;;20.33;6.37;;;3.80;99.90;;;;;;10365476;28;20213;-77
2022/01/30 22:05:23;;;;;;;18.53;5.50;;;3.70;99.90;;;;;;10384012;28;20583;-79
2022/01/30 22:10:24;;;;;;;19.00;7.13;;;3.70;99.90;;;;;;10367783;28;20223;-77
2022/01/30 22:15:25;;;;;;;22.03;7.40;;;3.70;99.90;;;;;;10353535;28;20213;-78
2022/01/30 22:20:26;;;;;;;18.40;6.20;;;3.70;99.90;;;;;;10365430;28;20243;-78
2022/01/30 22:25:30;;;;;;;21.43;6.63;;;3.70;99.90;;;;;;10352952;28;20961;-76
2022/01/30 22:30:32;;;;;;;17.47;6.37;;;3.80;99.90;;;;;;10344146;28;20225;-75
2022/01/30 22:35:43;;;;;;;15.53;5.77;;;3.80;99.90;;;;;;10348505;28;20226;-78
2022/01/30 23:26:25;;;;;;;17.40;5.80;;;3.90;99.90;;;;;;2723657;26;20220;-77
2022/01/30 23:32:06;;;;;;;14.70;5.57;;;3.90;99.90;;;;;;10438533;23;20294;-79
2022/01/30 23:48:13;;;;;;;15.90;5.40;;;4.10;99.90;;;;;;5021527;26;20277;-78
